createdAt,value
2022-08-22T00:02:10.568Z,2.20
2022-08-22T00:02:45.174Z,3.80
2022-08-22T00:03:03.864Z,1.60
2022-08-22T00:04:47.645Z,1.93
2022-08-22T00:07:27.519Z,1.97
2022-08-22T00:10:03.159Z,2.30
2022-08-22T00:12:38.095Z,1.90
2022-08-22T00:15:31.695Z,1.97
2022-08-22T00:18:08.359Z,2.00
2022-08-22T00:20:43.690Z,2.00
2022-08-22T00:23:17.752Z,2.17
2022-08-22T00:25:52.912Z,2.27
2022-08-22T00:28:25.951Z,2.37
2022-08-22T00:30:59.005Z,2.13
2022-08-22T00:33:40.404Z,1.90
2022-08-22T00:36:20.331Z,2.10
2022-08-22T00:38:53.228Z,2.20
2022-08-22T00:41:35.023Z,2.10
2022-08-22T00:44:26.920Z,2.20
2022-08-22T00:47:06.800Z,2.27
2022-08-22T00:49:51.620Z,2.50
2022-08-22T00:52:47.650Z,2.53
2022-08-22T00:55:34.885Z,1.83
2022-08-22T00:58:26.422Z,2.03
2022-08-22T01:00:56.810Z,2.13
2022-08-22T01:03:53.241Z,2.07
2022-08-22T01:06:33.193Z,2.57
2022-08-22T01:09:11.620Z,1.97
2022-08-22T01:11:59.750Z,2.10
2022-08-22T01:14:40.227Z,2.03
2022-08-22T01:17:37.706Z,2.10
2022-08-22T01:20:42.120Z,1.90
2022-08-22T01:23:44.921Z,1.97
2022-08-22T01:26:41.757Z,2.53
2022-08-22T01:29:45.082Z,2.17
2022-08-22T01:32:47.391Z,2.43
2022-08-22T01:36:00.415Z,1.77
2022-08-22T01:38:55.132Z,1.80
2022-08-22T01:42:15.365Z,2.40
2022-08-22T01:45:15.358Z,2.27
2022-08-22T01:47:54.183Z,2.33
2022-08-22T01:50:26.244Z,2.47
2022-08-22T01:53:06.848Z,1.80
2022-08-22T01:55:39.833Z,1.90
2022-08-22T01:58:17.631Z,1.97
2022-08-22T02:01:02.882Z,2.43
2022-08-22T02:03:36.283Z,2.20
2022-08-22T02:06:09.567Z,2.10
2022-08-22T02:08:51.867Z,2.10
2022-08-22T02:11:47.840Z,2.20
2022-08-22T02:14:27.629Z,2.07
2022-08-22T02:16:59.867Z,2.07
2022-08-22T02:19:37.905Z,1.83
2022-08-22T02:22:17.931Z,1.93
2022-08-22T02:25:04.348Z,2.03
2022-08-22T02:27:47.553Z,2.13
2022-08-22T02:30:18.053Z,2.13
2022-08-22T02:33:04.106Z,2.10
2022-08-22T02:35:37.981Z,2.30
2022-08-22T02:38:26.238Z,2.47
2022-08-22T02:41:07.477Z,2.20
2022-08-22T02:43:43.583Z,2.43
2022-08-22T02:46:24.055Z,2.20
2022-08-22T02:49:04.080Z,2.30
2022-08-22T02:51:37.760Z,2.90
2022-08-22T02:54:17.107Z,2.10
2022-08-22T02:56:53.427Z,2.10
2022-08-22T02:59:31.919Z,2.57
2022-08-22T03:02:34.932Z,2.50
2022-08-22T03:05:16.729Z,2.10
2022-08-22T03:07:50.071Z,2.20
2022-08-22T03:10:23.851Z,2.30
2022-08-22T03:13:07.702Z,2.40
2022-08-22T03:15:48.470Z,2.00
2022-08-22T03:18:25.811Z,2.20
2022-08-22T03:20:59.882Z,2.07
2022-08-22T03:23:41.106Z,2.60
2022-08-22T03:26:16.895Z,2.50
2022-08-22T03:28:54.407Z,2.60
2022-08-22T03:31:29.531Z,2.20
2022-08-22T03:34:32.248Z,2.47
2022-08-22T03:37:07.079Z,2.77
2022-08-22T03:39:54.634Z,2.27
2022-08-22T03:42:46.034Z,2.80
2022-08-22T03:45:38.691Z,3.10
2022-08-22T03:48:38.563Z,2.37
2022-08-22T03:51:23.299Z,2.60
2022-08-22T03:54:16.246Z,2.73
2022-08-22T03:57:20.118Z,2.93
2022-08-22T04:00:14.844Z,2.60
2022-08-22T04:03:13.918Z,2.73
2022-08-22T04:05:56.771Z,2.80
2022-08-22T04:08:55.326Z,3.00
2022-08-22T04:11:59.541Z,2.37
2022-08-22T04:15:04.278Z,2.30
2022-08-22T04:17:50.694Z,3.07
2022-08-22T04:20:37.692Z,2.77
2022-08-22T04:23:28.435Z,2.63
2022-08-22T04:26:01.870Z,2.40
2022-08-22T04:28:44.671Z,3.90
2022-08-22T04:31:14.041Z,3.30
2022-08-22T04:33:47.378Z,3.40
2022-08-22T04:36:20.855Z,2.93
2022-08-22T04:38:54.211Z,3.20
2022-08-22T04:41:38.381Z,2.67
2022-08-22T04:44:13.467Z,2.83
2022-08-22T04:46:46.527Z,3.00
2022-08-22T04:49:24.424Z,2.90
2022-08-22T04:51:58.692Z,2.90
2022-08-22T04:54:49.582Z,2.60
2022-08-22T04:57:28.284Z,2.93
2022-08-22T05:00:00.389Z,3.10
2022-08-22T05:02:29.332Z,2.63
2022-08-22T05:05:04.087Z,3.17
2022-08-22T05:07:36.402Z,3.00
2022-08-22T05:10:12.021Z,3.40
2022-08-22T05:12:47.008Z,2.77
2022-08-22T05:15:23.055Z,3.03
2022-08-22T05:17:54.653Z,2.63
2022-08-22T05:20:26.926Z,3.17
2022-08-22T05:23:00.215Z,3.10
2022-08-22T05:25:31.376Z,3.03
2022-08-22T05:28:10.587Z,3.27
2022-08-22T05:30:40.283Z,2.93
2022-08-22T05:33:19.269Z,3.00
2022-08-22T05:35:54.557Z,3.03
2022-08-22T05:38:31.613Z,2.50
2022-08-22T05:41:03.545Z,3.00
2022-08-22T05:43:40.571Z,3.00
2022-08-22T05:46:15.952Z,3.07
2022-08-22T05:48:50.365Z,2.97
2022-08-22T05:51:25.195Z,2.90
2022-08-22T05:54:12.351Z,2.80
2022-08-22T05:56:45.512Z,3.60
2022-08-22T05:59:33.584Z,2.87
2022-08-22T06:02:14.960Z,2.90
2022-08-22T06:04:51.763Z,3.03
2022-08-22T06:07:26.825Z,2.33
2022-08-22T06:10:08.311Z,3.17
2022-08-22T06:12:51.178Z,2.60
2022-08-22T06:15:33.884Z,2.50
2022-08-22T06:18:06.019Z,2.50
2022-08-22T06:20:40.631Z,3.10
2022-08-22T06:23:12.439Z,2.50
2022-08-22T06:25:44.401Z,2.30
2022-08-22T06:28:17.165Z,2.90
2022-08-22T06:30:48.411Z,2.77
2022-08-22T06:33:21.923Z,2.93
2022-08-22T06:36:11.337Z,2.63
2022-08-22T06:38:55.067Z,2.40
2022-08-22T06:41:27.125Z,2.70
2022-08-22T06:43:56.604Z,2.50
2022-08-22T06:46:30.840Z,2.47
2022-08-22T06:49:00.954Z,2.27
2022-08-22T06:51:30.461Z,2.70
2022-08-22T06:54:01.941Z,2.90
2022-08-22T06:56:34.816Z,3.10
2022-08-22T06:59:08.539Z,3.00
2022-08-22T07:01:48.968Z,3.47
2022-08-22T07:04:17.976Z,2.73
2022-08-22T07:06:50.834Z,3.57
2022-08-22T07:09:24.817Z,3.13
2022-08-22T07:11:54.496Z,2.60
2022-08-22T07:14:29.615Z,3.07
2022-08-22T07:17:00.986Z,2.60
2022-08-22T07:19:33.035Z,2.87
2022-08-22T07:22:13.407Z,2.57
2022-08-22T07:24:47.432Z,2.57
2022-08-22T07:27:27.174Z,2.30
2022-08-22T07:30:02.913Z,3.30
2022-08-22T07:32:43.007Z,2.97
2022-08-22T07:35:15.690Z,3.17
2022-08-22T07:38:05.606Z,2.43
2022-08-22T07:40:39.394Z,2.70
2022-08-22T07:43:21.095Z,2.60
2022-08-22T07:45:54.172Z,2.43
2022-08-22T07:48:28.763Z,2.67
2022-08-22T07:51:03.605Z,2.30
2022-08-22T07:53:39.563Z,2.23
2022-08-22T07:56:10.715Z,2.20
2022-08-22T07:58:42.025Z,2.60
2022-08-22T08:01:12.419Z,2.47
2022-08-22T08:03:42.088Z,2.37
2022-08-22T08:06:10.800Z,2.33
2022-08-22T08:08:42.571Z,2.17
2022-08-22T08:11:14.366Z,2.10
2022-08-22T08:13:45.922Z,2.00
2022-08-22T08:16:20.456Z,2.27
2022-08-22T08:18:52.075Z,1.83
2022-08-22T08:21:30.878Z,2.07
2022-08-22T08:24:01.326Z,1.50
2022-08-22T08:26:34.189Z,1.93
2022-08-22T08:29:03.141Z,1.93
2022-08-22T08:31:35.405Z,1.70
2022-08-22T08:34:09.672Z,1.30
2022-08-22T08:36:48.187Z,1.40
2022-08-22T08:39:25.070Z,1.33
2022-08-22T08:42:33.686Z,1.87
2022-08-22T08:45:15.830Z,1.47
2022-08-22T08:47:57.304Z,1.77
2022-08-22T08:50:40.063Z,1.60
2022-08-22T08:53:38.559Z,1.80
2022-08-22T08:56:20.131Z,1.33
2022-08-22T08:58:54.790Z,1.63
2022-08-22T09:01:53.235Z,1.50
2022-08-22T09:05:12.557Z,1.50
2022-08-22T09:08:05.820Z,1.50
2022-08-22T09:11:09.919Z,1.40
2022-08-22T09:13:57.412Z,1.83
2022-08-22T09:16:45.571Z,1.50
2022-08-22T09:19:50.064Z,1.23
2022-08-22T09:22:57.995Z,1.60
2022-08-22T09:25:39.197Z,1.13
2022-08-22T09:28:15.292Z,1.43
2022-08-22T09:31:21.828Z,1.20
2022-08-22T09:34:07.842Z,1.10
2022-08-22T09:36:48.191Z,1.10
2022-08-22T09:39:24.480Z,1.10
2022-08-22T09:41:58.860Z,1.57
2022-08-22T09:44:52.960Z,0.97
2022-08-22T09:47:28.095Z,1.10
2022-08-22T09:50:12.278Z,1.33
2022-08-22T09:52:57.059Z,1.50
2022-08-22T09:55:41.579Z,1.60
2022-08-22T09:58:21.359Z,1.10
2022-08-22T10:00:56.224Z,1.30
2022-08-22T10:03:34.011Z,1.57
2022-08-22T10:06:05.746Z,1.43
2022-08-22T10:08:48.154Z,1.30
2022-08-22T10:11:24.473Z,1.20
2022-08-22T10:14:04.496Z,1.33
2022-08-22T10:17:00.116Z,1.40
2022-08-22T10:19:34.069Z,1.27
2022-08-22T10:22:36.991Z,1.67
2022-08-22T10:25:25.693Z,1.27
2022-08-22T10:28:11.912Z,1.80
2022-08-22T10:30:50.107Z,1.10
2022-08-22T10:33:29.154Z,1.10
2022-08-22T10:36:05.005Z,1.23
2022-08-22T10:38:46.411Z,1.40
2022-08-22T10:41:26.895Z,1.37
2022-08-22T10:44:04.224Z,1.23
2022-08-22T10:46:38.070Z,1.17
2022-08-22T10:49:14.334Z,1.50
2022-08-22T10:51:50.768Z,1.30
2022-08-22T10:54:30.949Z,1.40
2022-08-22T10:57:10.842Z,1.13
2022-08-22T10:59:45.823Z,1.00
2022-08-22T11:02:44.722Z,1.20
2022-08-22T11:05:25.784Z,1.60
2022-08-22T11:08:11.877Z,2.07
2022-08-22T11:10:56.105Z,1.60
2022-08-22T11:13:31.751Z,1.60
2022-08-22T11:16:09.535Z,1.67
2022-08-22T11:19:02.012Z,1.47
2022-08-22T11:21:45.833Z,1.27
2022-08-22T11:24:55.905Z,1.40
2022-08-22T11:27:37.863Z,1.80
2022-08-22T11:30:11.323Z,1.63
2022-08-22T11:33:16.048Z,1.60
2022-08-22T11:35:51.763Z,1.43
2022-08-22T11:38:32.446Z,1.40
2022-08-22T11:41:05.441Z,1.70
2022-08-22T11:43:43.440Z,1.57
2022-08-22T11:46:22.173Z,1.57
2022-08-22T11:49:17.029Z,1.60
2022-08-22T11:52:13.224Z,1.70
2022-08-22T11:55:03.824Z,1.30
2022-08-22T11:57:38.697Z,1.70
2022-08-22T12:00:24.990Z,1.57
2022-08-22T12:03:23.389Z,1.50
2022-08-22T12:05:57.973Z,1.80
2022-08-22T12:09:02.420Z,1.60
2022-08-22T12:11:41.324Z,1.50
2022-08-22T12:14:26.887Z,1.60
2022-08-22T12:17:08.856Z,1.70
2022-08-22T12:22:40.486Z,1.50
2022-08-22T12:25:26.998Z,1.80
2022-08-22T12:28:08.487Z,1.63
2022-08-22T12:30:42.894Z,1.37
2022-08-22T12:33:29.897Z,1.70
2022-08-22T12:36:26.214Z,1.87
2022-08-22T12:39:27.454Z,1.87
2022-08-22T12:42:26.910Z,1.80
2022-08-22T12:45:12.070Z,1.40
2022-08-22T12:47:49.356Z,1.90
2022-08-22T12:50:31.396Z,1.70
2022-08-22T12:53:36.551Z,1.80
2022-08-22T12:56:17.634Z,1.63
2022-08-22T12:59:11.074Z,1.50
2022-08-22T13:01:44.741Z,1.90
2022-08-22T13:04:29.681Z,1.80
2022-08-22T13:07:18.267Z,1.93
2022-08-22T13:09:52.423Z,1.70
2022-08-22T13:12:28.130Z,1.70
2022-08-22T13:15:01.849Z,1.80
2022-08-22T13:17:31.261Z,1.90
2022-08-22T13:20:12.350Z,2.20
2022-08-22T13:22:45.579Z,2.03
2022-08-22T13:25:26.136Z,1.97
2022-08-22T13:27:59.341Z,2.10
2022-08-22T13:30:31.576Z,2.10
2022-08-22T13:33:08.603Z,1.87
2022-08-22T13:35:45.646Z,2.30
2022-08-22T13:38:26.183Z,2.17
2022-08-22T13:40:56.797Z,2.00
2022-08-22T13:43:29.756Z,2.40
2022-08-22T13:46:02.119Z,2.00
2022-08-22T13:48:46.824Z,2.43
2022-08-22T13:51:21.835Z,2.10
2022-08-22T13:54:00.737Z,2.00
2022-08-22T13:56:47.166Z,2.10
2022-08-22T13:59:49.462Z,2.30
2022-08-22T14:02:30.907Z,2.37
2022-08-22T14:05:05.396Z,2.40
2022-08-22T14:07:39.076Z,2.23
2022-08-22T14:10:14.647Z,2.33
2022-08-22T14:13:05.114Z,2.13
2022-08-22T14:15:45.434Z,2.20
2022-08-22T14:18:30.318Z,2.10
2022-08-22T14:21:33.531Z,1.90
2022-08-22T14:24:25.893Z,1.80
2022-08-22T14:26:59.297Z,2.00
2022-08-22T14:29:50.218Z,1.70
2022-08-22T14:32:38.334Z,1.90
2022-08-22T14:35:29.187Z,1.83
2022-08-22T14:38:27.380Z,2.20
2022-08-22T14:41:03.276Z,2.00
2022-08-22T14:43:51.416Z,1.80
2022-08-22T14:46:27.804Z,1.73
2022-08-22T14:49:29.465Z,1.90
2022-08-22T14:52:04.749Z,1.57
2022-08-22T14:54:40.253Z,2.27
2022-08-22T14:57:20.089Z,1.93
2022-08-22T14:59:51.777Z,2.10
2022-08-22T15:02:28.765Z,2.20
2022-08-22T15:05:01.968Z,1.70
2022-08-22T15:07:36.395Z,1.73
2022-08-22T15:10:20.714Z,2.13
2022-08-22T15:12:53.814Z,2.00
2022-08-22T15:15:49.575Z,2.00
2022-08-22T15:18:36.486Z,1.80
2022-08-22T15:21:12.345Z,2.07
2022-08-22T15:23:46.939Z,2.00
2022-08-22T15:26:23.977Z,1.90
2022-08-22T15:28:59.170Z,2.03
2022-08-22T15:31:27.241Z,2.37
2022-08-22T15:34:08.627Z,2.53
2022-08-22T15:37:22.554Z,1.80
2022-08-22T15:40:11.962Z,2.13
2022-08-22T15:42:43.400Z,1.73
2022-08-22T15:45:21.609Z,1.63
2022-08-22T15:47:54.209Z,1.60
2022-08-22T15:50:38.684Z,1.77
2022-08-22T15:53:15.898Z,1.80
2022-08-22T15:56:29.009Z,1.80
2022-08-22T15:59:27.364Z,2.03
2022-08-22T16:02:00.429Z,1.47
2022-08-22T16:04:42.433Z,2.00
2022-08-22T16:07:35.276Z,1.77
2022-08-22T16:10:11.026Z,1.50
2022-08-22T16:12:42.246Z,1.77
2022-08-22T16:15:57.416Z,1.53
2022-08-22T16:19:11.069Z,1.70
2022-08-22T16:22:11.196Z,1.60
2022-08-22T16:25:03.774Z,1.77
2022-08-22T16:27:34.484Z,2.20
2022-08-22T16:30:15.220Z,1.70
2022-08-22T16:32:56.270Z,1.30
2022-08-22T16:36:01.458Z,1.60
2022-08-22T16:38:37.653Z,1.97
2022-08-22T16:41:06.090Z,1.67
2022-08-22T16:43:35.570Z,1.70
2022-08-22T16:46:33.226Z,2.20
2022-08-22T16:49:05.193Z,2.03
2022-08-22T16:51:35.501Z,1.70
2022-08-22T16:54:10.279Z,1.80
2022-08-22T16:56:56.864Z,2.00
2022-08-22T16:59:57.572Z,1.50
2022-08-22T17:02:47.784Z,1.80
2022-08-22T17:05:32.345Z,1.53
2022-08-22T17:08:26.776Z,1.90
2022-08-22T17:11:04.815Z,1.70
2022-08-22T17:13:55.526Z,1.53
2022-08-22T17:16:36.789Z,1.83
2022-08-22T17:19:20.845Z,2.43
2022-08-22T17:21:55.225Z,1.87
2022-08-22T17:24:37.414Z,2.00
2022-08-22T17:27:15.250Z,2.10
2022-08-22T17:29:55.083Z,1.80
2022-08-22T17:32:33.548Z,1.80
2022-08-22T17:35:14.669Z,2.33
2022-08-22T17:37:51.455Z,2.13
2022-08-22T17:40:37.916Z,2.43
2022-08-22T17:43:28.107Z,2.13
2022-08-22T17:46:27.362Z,2.20
2022-08-22T17:49:03.255Z,1.73
2022-08-22T17:51:38.911Z,2.10
2022-08-22T17:54:20.842Z,2.50
2022-08-22T17:57:29.494Z,2.10
2022-08-22T18:00:07.967Z,2.10
2022-08-22T18:02:55.506Z,2.40
2022-08-22T18:05:30.989Z,2.60
2022-08-22T18:08:06.514Z,1.90
2022-08-22T18:10:42.597Z,2.00
2022-08-22T18:13:14.446Z,2.43
2022-08-22T18:15:50.144Z,2.20
2022-08-22T18:18:30.272Z,2.40
2022-08-22T18:21:06.113Z,2.00
2022-08-22T18:23:40.212Z,2.30
2022-08-22T18:26:21.404Z,2.50
2022-08-22T18:28:58.091Z,2.10
2022-08-22T18:31:38.713Z,2.27
2022-08-22T18:34:16.788Z,2.23
2022-08-22T18:36:54.910Z,2.60
2022-08-22T18:39:27.334Z,2.57
2022-08-22T18:42:05.320Z,2.20
2022-08-22T18:44:37.452Z,2.50
2022-08-22T18:47:15.344Z,2.40
2022-08-22T18:49:48.432Z,2.27
2022-08-22T18:52:37.043Z,2.47
2022-08-22T18:55:28.208Z,2.60
2022-08-22T18:58:34.132Z,3.30
2022-08-22T19:01:32.032Z,2.03
2022-08-22T19:04:25.262Z,2.47
2022-08-22T19:07:23.247Z,2.57
2022-08-22T19:10:20.524Z,2.77
2022-08-22T19:13:17.189Z,2.50
2022-08-22T19:15:57.277Z,2.57
2022-08-22T19:18:36.251Z,2.60
2022-08-22T19:21:41.645Z,2.17
2022-08-22T19:24:13.696Z,2.50
2022-08-22T19:26:47.679Z,2.07
2022-08-22T19:29:58.317Z,2.00
2022-08-22T19:33:02.070Z,2.63
2022-08-22T19:35:40.109Z,2.67
2022-08-22T19:38:10.391Z,3.00
2022-08-22T19:40:58.260Z,2.60
2022-08-22T19:43:35.509Z,2.20
2022-08-22T19:46:07.100Z,2.83
2022-08-22T19:48:45.057Z,2.53
2022-08-22T19:51:24.831Z,3.17
2022-08-22T19:54:07.626Z,3.30
2022-08-22T19:56:51.143Z,2.57
2022-08-22T19:59:32.375Z,2.03
2022-08-22T20:02:17.725Z,2.23
2022-08-22T20:05:04.805Z,2.40
2022-08-22T20:07:49.475Z,2.40
2022-08-22T20:10:26.361Z,2.83
2022-08-22T20:13:05.506Z,2.80
2022-08-22T20:16:17.614Z,2.47
2022-08-22T20:19:20.437Z,2.10
2022-08-22T20:21:57.937Z,1.83
2022-08-22T20:24:36.491Z,2.40
2022-08-22T20:27:14.803Z,2.20
2022-08-22T20:29:49.582Z,2.37
2022-08-22T20:32:23.027Z,2.70
2022-08-22T20:34:56.946Z,2.20
2022-08-22T20:37:45.477Z,2.43
2022-08-22T20:40:54.590Z,2.10
2022-08-22T20:43:20.335Z,2.43
2022-08-22T20:45:59.133Z,2.20
2022-08-22T20:48:37.348Z,3.90
2022-08-22T20:51:06.796Z,3.50
2022-08-22T20:53:36.451Z,2.53
2022-08-22T20:56:07.142Z,2.57
2022-08-22T20:58:38.725Z,2.30
2022-08-22T21:01:08.346Z,2.90
2022-08-22T21:03:42.513Z,4.40
2022-08-22T21:06:13.161Z,4.23
2022-08-22T21:08:42.575Z,2.77
2022-08-22T21:11:34.678Z,2.03
2022-08-22T21:14:19.279Z,1.90
2022-08-22T21:16:47.264Z,3.23
2022-08-22T21:19:20.417Z,2.83
2022-08-22T21:21:48.673Z,2.00
2022-08-22T21:24:16.863Z,2.40
2022-08-22T21:26:49.794Z,4.73
2022-08-22T21:29:23.413Z,3.80
2022-08-22T21:31:54.214Z,5.37
2022-08-22T21:34:31.702Z,2.97
2022-08-22T21:37:02.967Z,2.90
2022-08-22T21:39:35.281Z,2.50
2022-08-22T21:42:11.831Z,2.73
2022-08-22T21:44:41.616Z,2.70
2022-08-22T21:47:31.823Z,2.30
2022-08-22T21:50:07.385Z,2.43
2022-08-22T21:52:38.387Z,2.10
2022-08-22T21:55:17.975Z,1.93
2022-08-22T21:57:45.957Z,1.83
2022-08-22T22:00:49.680Z,2.20
2022-08-22T22:03:20.840Z,2.27
2022-08-22T22:05:52.753Z,2.00
2022-08-22T22:08:20.718Z,2.00
2022-08-22T22:10:50.590Z,2.07
2022-08-22T22:13:20.023Z,2.27
2022-08-22T22:15:53.524Z,2.20
2022-08-22T22:18:24.386Z,2.20
2022-08-22T22:20:55.473Z,2.10
2022-08-22T22:23:24.206Z,2.60
2022-08-22T22:25:53.405Z,2.77
2022-08-22T22:28:24.955Z,2.67
2022-08-22T22:30:54.024Z,2.40
2022-08-22T22:33:25.448Z,2.17
2022-08-22T22:35:57.108Z,2.53
2022-08-22T22:38:25.504Z,2.53
2022-08-22T22:40:53.903Z,2.47
2022-08-22T22:43:22.115Z,2.10
2022-08-22T22:45:50.211Z,2.53
2022-08-22T22:48:23.830Z,2.03
2022-08-22T22:50:54.945Z,2.30
2022-08-22T22:53:33.669Z,2.47
2022-08-22T22:56:07.731Z,2.03
2022-08-22T22:58:38.183Z,2.27
2022-08-22T23:01:08.968Z,2.13
2022-08-22T23:03:37.014Z,2.50
2022-08-22T23:06:10.712Z,2.60
2022-08-22T23:08:38.644Z,2.30
2022-08-22T23:11:11.175Z,2.23
2022-08-22T23:13:39.708Z,2.10
2022-08-22T23:16:10.844Z,2.23
2022-08-22T23:18:38.881Z,2.30
2022-08-22T23:21:16.434Z,2.30
2022-08-22T23:23:44.633Z,2.00
2022-08-22T23:26:13.931Z,2.13
2022-08-22T23:28:42.188Z,2.43
2022-08-22T23:31:12.160Z,1.80
2022-08-22T23:33:40.192Z,2.30
2022-08-22T23:36:15.219Z,2.20
2022-08-22T23:38:43.319Z,2.80
2022-08-22T23:41:12.819Z,2.63
2022-08-22T23:43:43.991Z,2.00
2022-08-22T23:46:11.989Z,2.30
2022-08-22T23:48:39.906Z,2.40
2022-08-22T23:51:08.474Z,2.60
2022-08-22T23:53:38.596Z,2.20
2022-08-22T23:56:19.822Z,2.10
2022-08-22T23:58:49.176Z,2.30
